Time;durP1;ratioP1;P1;durP2;ratioP2;P2;SDS_P1;SDS_P2;PMS_P1;PMS_P2;Temp;Humidity;BMP_temperature;BMP_pressure;BME280_temperature;BME280_humidity;BME280_pressure;Samples;Min_cycle;Max_cycle;Signal;HPM_P1;HPM_P2
2023/07/03 00:02:27;;;;;;;0.00;0.00;;;;;;;-145.01;100.00;64805.59;5076413;28;20040;-59
2023/07/03 00:04:55;;;;;;;0.10;0.10;;;;;;;-145.01;100.00;64805.59;5082036;28;20040;-59
2023/07/03 00:07:22;;;;;;;0.00;0.00;;;;;;;-145.01;100.00;64805.59;5076726;28;20040;-59
2023/07/03 00:09:50;;;;;;;0.03;0.03;;;;;;;-145.01;100.00;64805.59;5073173;28;20045;-61
2023/07/03 00:12:22;;;;;;;0.00;0.00;;;;;;;-145.01;100.00;64805.59;5083336;28;20050;-60
2023/07/03 00:14:50;;;;;;;0.00;0.00;;;;;;;-145.01;100.00;64805.59;5080981;28;20382;-60
2023/07/03 00:17:19;;;;;;;0.05;0.05;;;;;;;-145.01;100.00;64805.59;5077089;28;20544;-60
2023/07/03 00:19:47;;;;;;;0.00;0.00;;;;;;;-145.01;100.00;64805.59;5076498;28;20158;-60
2023/07/03 00:22:15;;;;;;;0.10;0.10;;;;;;;-145.01;100.00;64805.59;5077801;28;20391;-60
2023/07/03 00:24:42;;;;;;;0.00;0.00;;;;;;;-145.01;100.00;64805.59;5075842;28;20048;-60
2023/07/03 00:27:10;;;;;;;0.10;0.10;;;;;;;-145.01;100.00;64805.59;5077525;28;20040;-59
2023/07/03 00:29:37;;;;;;;0.00;0.00;;;;;;;-145.01;100.00;64805.59;5078979;28;20070;-59
2023/07/03 00:32:06;;;;;;;0.00;0.00;;;;;;;-145.01;100.00;64805.59;5075956;28;20044;-59
2023/07/03 00:34:35;;;;;;;0.00;0.00;;;;;;;-145.01;100.00;64805.59;5078479;28;20128;-60
2023/07/03 00:37:04;;;;;;;0.10;0.10;;;;;;;-145.01;100.00;64805.59;5075089;28;20059;-60
2023/07/03 00:39:31;;;;;;;0.00;0.00;;;;;;;-145.01;100.00;64805.59;5079955;28;20059;-60
2023/07/03 00:42:04;;;;;;;0.10;0.10;;;;;;;-145.01;100.00;64805.59;5079834;28;20055;-61
2023/07/03 00:44:31;;;;;;;0.10;0.10;;;;;;;-145.01;100.00;64805.59;5093356;28;20068;-60
2023/07/03 00:47:03;;;;;;;0.10;0.10;;;;;;;-145.01;100.00;64805.59;5081488;28;20593;-60
2023/07/03 00:49:30;;;;;;;0.05;0.05;;;;;;;-145.01;100.00;64805.59;5074476;28;20395;-60
2023/07/03 00:52:02;;;;;;;0.10;0.10;;;;;;;-145.01;100.00;64805.59;5074235;28;20128;-60
2023/07/03 00:54:30;;;;;;;0.20;0.20;;;;;;;-145.01;100.00;64805.59;5081781;28;20060;-60
2023/07/03 00:56:59;;;;;;;0.20;0.20;;;;;;;-145.01;100.00;64805.59;5078867;28;20044;-60
2023/07/03 00:59:29;;;;;;;0.10;0.10;;;;;;;-145.01;100.00;64805.59;5078758;28;20040;-60
2023/07/03 01:02:00;;;;;;;0.00;0.00;;;;;;;-145.01;100.00;64805.59;5082325;28;20076;-59
2023/07/03 01:04:30;;;;;;;0.10;0.10;;;;;;;-145.01;100.00;64805.59;5073689;28;20356;-60
2023/07/03 01:07:04;;;;;;;0.10;0.10;;;;;;;-145.01;100.00;64805.59;5078764;28;20051;-60
2023/07/03 01:09:33;;;;;;;0.00;0.00;;;;;;;-145.01;100.00;64805.59;5077621;28;20132;-60
2023/07/03 01:12:01;;;;;;;0.10;0.10;;;;;;;-145.01;100.00;64805.59;5076968;28;20057;-59
2023/07/03 01:14:30;;;;;;;0.10;0.10;;;;;;;-145.01;100.00;64805.59;5076641;28;20048;-59
2023/07/03 01:16:59;;;;;;;0.10;0.10;;;;;;;-145.01;100.00;64805.59;5084000;28;20484;-60
2023/07/03 01:19:31;;;;;;;0.03;0.03;;;;;;;-145.01;100.00;64805.59;5073358;28;20156;-59
2023/07/03 01:22:09;;;;;;;0.20;0.13;;;;;;;-145.01;100.00;64805.59;5076251;28;20044;-59
2023/07/03 01:24:40;;;;;;;0.10;0.10;;;;;;;-145.01;100.00;64805.59;5073609;28;20101;-60
2023/07/03 01:27:09;;;;;;;0.10;0.10;;;;;;;-145.01;100.00;64805.59;5077171;28;20144;-59
2023/07/03 01:29:37;;;;;;;0.00;0.00;;;;;;;-145.01;100.00;64805.59;5073673;28;20044;-59
2023/07/03 01:32:05;;;;;;;0.10;0.10;;;;;;;-145.01;100.00;64805.59;5077702;28;20040;-59
2023/07/03 01:34:32;;;;;;;0.00;0.00;;;;;;;-145.01;100.00;64805.59;5075488;28;20050;-60
2023/07/03 01:37:03;;;;;;;0.10;0.10;;;;;;;-145.01;100.00;64805.59;5076745;28;20498;-59
2023/07/03 01:39:30;;;;;;;0.10;0.10;;;;;;;-145.01;100.00;64805.59;5077909;28;20040;-59
2023/07/03 01:42:02;;;;;;;0.10;0.10;;;;;;;-145.01;100.00;64805.59;5094715;28;20055;-59
2023/07/03 01:44:30;;;;;;;0.17;0.17;;;;;;;-145.01;100.00;64805.59;5074204;28;20068;-59
2023/07/03 01:47:04;;;;;;;0.10;0.10;;;;;;;-145.01;100.00;64805.59;5082645;28;20044;-60
2023/07/03 01:49:32;;;;;;;0.17;0.17;;;;;;;-145.01;100.00;64805.59;5076680;28;20422;-60
2023/07/03 01:52:05;;;;;;;0.10;0.10;;;;;;;-145.01;100.00;64805.59;5073631;28;20168;-60
2023/07/03 01:54:39;;;;;;;0.10;0.10;;;;;;;-145.01;100.00;64805.59;5075430;28;20072;-60
2023/07/03 01:57:11;;;;;;;0.20;0.20;;;;;;;-145.01;100.00;64805.59;5075697;28;20370;-60
2023/07/03 01:59:40;;;;;;;0.10;0.10;;;;;;;-145.01;100.00;64805.59;5077705;28;20047;-58
2023/07/03 02:02:10;;;;;;;0.10;0.10;;;;;;;-145.01;100.00;64805.59;5080968;28;20102;-60
2023/07/03 02:04:39;;;;;;;0.10;0.10;;;;;;;-145.01;100.00;64805.59;5068917;28;20063;-61
2023/07/03 02:07:07;;;;;;;0.10;0.10;;;;;;;-145.01;100.00;64805.59;5075329;28;20281;-60
2023/07/03 02:09:34;;;;;;;0.10;0.10;;;;;;;-145.01;100.00;64805.59;5075192;28;20046;-59
2023/07/03 02:12:08;;;;;;;0.20;0.20;;;;;;;-145.01;100.00;64805.59;5077550;28;20133;-61
2023/07/03 02:14:38;;;;;;;0.10;0.10;;;;;;;-145.01;100.00;64805.59;5075013;28;20441;-60
2023/07/03 02:17:07;;;;;;;0.10;0.10;;;;;;;-145.01;100.00;64805.59;5076773;28;20047;-60
2023/07/03 02:19:36;;;;;;;0.10;0.10;;;;;;;-145.01;100.00;64805.59;5079627;28;20497;-60
2023/07/03 02:22:07;;;;;;;0.20;0.20;;;;;;;-145.01;100.00;64805.59;5069877;28;20580;-60
2023/07/03 02:24:36;;;;;;;0.20;0.20;;;;;;;-145.01;100.00;64805.59;5057102;28;20329;-62
2023/07/03 02:27:07;;;;;;;0.10;0.10;;;;;;;-145.01;100.00;64805.59;5078299;28;20120;-59
2023/07/03 02:29:34;;;;;;;0.30;0.30;;;;;;;-145.01;100.00;64805.59;5073742;28;20067;-58
2023/07/03 02:32:08;;;;;;;0.10;0.10;;;;;;;-145.01;100.00;64805.59;5080288;28;20044;-59
2023/07/03 02:34:36;;;;;;;0.17;0.17;;;;;;;-145.01;100.00;64805.59;5076093;28;20059;-59
2023/07/03 02:37:05;;;;;;;0.20;0.20;;;;;;;-145.01;100.00;64805.59;5075849;28;20072;-59
2023/07/03 02:39:32;;;;;;;0.10;0.10;;;;;;;-145.01;100.00;64805.59;5079671;28;20068;-58
2023/07/03 02:42:00;;;;;;;0.15;0.10;;;;;;;-145.01;100.00;64805.59;5075615;28;20052;-60
2023/07/03 02:44:27;;;;;;;0.10;0.10;;;;;;;-145.01;100.00;64805.59;5076890;28;20135;-59
2023/07/03 02:46:55;;;;;;;0.10;0.10;;;;;;;-145.01;100.00;64805.59;5078013;28;20353;-59
2023/07/03 02:49:28;;;;;;;0.17;0.17;;;;;;;-145.01;100.00;64805.59;5068890;28;20098;-60
2023/07/03 02:52:00;;;;;;;0.10;0.10;;;;;;;-145.01;100.00;64805.59;5080431;28;20043;-59
2023/07/03 02:54:31;;;;;;;0.10;0.10;;;;;;;-145.01;100.00;64805.59;5076002;28;20059;-59
2023/07/03 02:57:05;;;;;;;0.10;0.10;;;;;;;-145.01;100.00;64805.59;5070191;28;20044;-61
2023/07/03 02:59:33;;;;;;;0.20;0.20;;;;;;;-145.01;100.00;64805.59;5074341;28;20079;-59
2023/07/03 03:02:03;;;;;;;0.10;0.10;;;;;;;-145.01;100.00;64805.59;5074476;28;20056;-61
2023/07/03 03:04:33;;;;;;;0.20;0.20;;;;;;;-145.01;100.00;64805.59;5074463;28;20044;-61
2023/07/03 03:07:02;;;;;;;0.10;0.10;;;;;;;-145.01;100.00;64805.59;5077618;28;20052;-60
2023/07/03 03:09:29;;;;;;;0.10;0.10;;;;;;;-145.01;100.00;64805.59;5077526;28;20063;-60
2023/07/03 03:11:58;;;;;;;0.17;0.17;;;;;;;-145.01;100.00;64805.59;5071501;28;20783;-61
2023/07/03 03:14:26;;;;;;;0.10;0.10;;;;;;;-145.01;100.00;64805.59;5074346;28;20098;-60
2023/07/03 03:16:59;;;;;;;0.20;0.20;;;;;;;-145.01;100.00;64805.59;5075600;28;20493;-61
2023/07/03 03:19:28;;;;;;;0.10;0.10;;;;;;;-145.01;100.00;64805.59;5073262;28;20570;-61
2023/07/03 03:22:04;;;;;;;0.10;0.10;;;;;;;-145.01;100.00;64805.59;5078294;28;20128;-60
2023/07/03 03:24:32;;;;;;;0.10;0.10;;;;;;;-145.01;100.00;64805.59;5074690;28;20529;-60
2023/07/03 03:27:05;;;;;;;0.20;0.20;;;;;;;-145.01;100.00;64805.59;5074954;28;20082;-60
2023/07/03 03:29:32;;;;;;;0.20;0.20;;;;;;;-145.01;100.00;64805.59;5074721;28;20048;-60
2023/07/03 03:32:04;;;;;;;0.10;0.10;;;;;;;-145.01;100.00;64805.59;5077730;28;20044;-60
2023/07/03 03:34:34;;;;;;;0.20;0.20;;;;;;;-145.01;100.00;64805.59;5080070;28;20542;-60
2023/07/03 03:37:04;;;;;;;0.20;0.20;;;;;;;-145.01;100.00;64805.59;5084940;28;20667;-60
2023/07/03 03:39:31;;;;;;;0.20;0.20;;;;;;;-145.01;100.00;64805.59;5083227;28;20044;-60
2023/07/03 03:41:59;;;;;;;0.10;0.10;;;;;;;-145.01;100.00;64805.59;5084377;28;20047;-60
2023/07/03 03:44:27;;;;;;;0.10;0.10;;;;;;;-145.01;100.00;64805.59;5087835;28;20078;-60
2023/07/03 03:46:58;;;;;;;0.20;0.20;;;;;;;-145.01;100.00;64805.59;5087584;28;20078;-60
2023/07/03 03:49:25;;;;;;;0.10;0.10;;;;;;;-145.01;100.00;64805.59;5090881;28;20097;-60
2023/07/03 03:51:54;;;;;;;0.20;0.20;;;;;;;-145.01;100.00;64805.59;5080979;28;20040;-60
2023/07/03 03:54:26;;;;;;;0.20;0.20;;;;;;;-145.01;100.00;64805.59;5086850;28;20052;-59
2023/07/03 03:56:54;;;;;;;0.20;0.20;;;;;;;-145.01;100.00;64805.59;5086771;28;20051;-60
2023/07/03 03:59:22;;;;;;;0.20;0.20;;;;;;;-145.01;100.00;64805.59;5083220;28;20127;-60
2023/07/03 04:01:50;;;;;;;0.20;0.20;;;;;;;-145.01;100.00;64805.59;5080720;28;20036;-60
2023/07/03 04:04:18;;;;;;;0.20;0.20;;;;;;;-145.01;100.00;64805.59;5081371;28;20112;-59
2023/07/03 04:06:45;;;;;;;0.20;0.20;;;;;;;-145.01;100.00;64805.59;5083986;28;20048;-58
2023/07/03 04:09:14;;;;;;;0.10;0.10;;;;;;;-145.01;100.00;64805.59;5087085;28;20454;-60
2023/07/03 04:11:47;;;;;;;0.10;0.10;;;;;;;-145.01;100.00;64805.59;5080784;28;20489;-61
2023/07/03 04:14:15;;;;;;;0.10;0.10;;;;;;;-145.01;100.00;64805.59;5079991;28;20087;-60
2023/07/03 04:16:43;;;;;;;0.10;0.10;;;;;;;-145.01;100.00;64805.59;5082392;28;20093;-59
2023/07/03 04:19:11;;;;;;;0.10;0.10;;;;;;;-145.01;100.00;64805.59;5086547;28;20559;-60
2023/07/03 04:21:40;;;;;;;0.10;0.10;;;;;;;-145.01;100.00;64805.59;5087062;28;20044;-60
2023/07/03 04:24:07;;;;;;;0.10;0.10;;;;;;;-145.01;100.00;64805.59;5085150;28;20123;-60
2023/07/03 04:26:38;;;;;;;0.10;0.10;;;;;;;-145.01;100.00;64805.59;5084509;28;20680;-60
2023/07/03 04:29:09;;;;;;;0.20;0.20;;;;;;;-145.01;100.00;64805.59;5082257;28;20036;-60
2023/07/03 04:31:39;;;;;;;0.10;0.10;;;;;;;-145.01;100.00;64805.59;5089518;28;20048;-60
2023/07/03 04:34:07;;;;;;;0.20;0.20;;;;;;;-145.01;100.00;64805.59;5082805;28;20238;-60
2023/07/03 04:36:34;;;;;;;0.10;0.10;;;;;;;-145.01;100.00;64805.59;5083910;28;20072;-60
2023/07/03 04:39:04;;;;;;;0.20;0.20;;;;;;;-145.01;100.00;64805.59;5084403;28;20036;-59
2023/07/03 04:41:31;;;;;;;0.40;0.40;;;;;;;-145.01;100.00;64805.59;5078465;28;20048;-59
2023/07/03 04:44:00;;;;;;;0.30;0.30;;;;;;;-145.01;100.00;64805.59;5078620;28;20454;-60
2023/07/03 04:46:30;;;;;;;0.20;0.20;;;;;;;-145.01;100.00;64805.59;5071953;28;20619;-59
2023/07/03 04:49:09;;;;;;;0.20;0.20;;;;;;;-145.01;100.00;64805.59;5075495;28;20045;-59
2023/07/03 04:51:39;;;;;;;0.20;0.20;;;;;;;-145.01;100.00;64805.59;5077854;28;20068;-59
2023/07/03 04:54:07;;;;;;;0.10;0.10;;;;;;;-145.01;100.00;64805.59;5079661;28;20330;-59
2023/07/03 04:56:35;;;;;;;0.20;0.20;;;;;;;-145.01;100.00;64805.59;5083734;28;20036;-59
2023/07/03 04:59:02;;;;;;;0.08;0.08;;;;;;;-145.01;100.00;64805.59;5079981;28;20070;-60
2023/07/03 05:01:31;;;;;;;0.10;0.10;;;;;;;-145.01;100.00;64805.59;5075399;28;20067;-60
2023/07/03 05:03:59;;;;;;;0.10;0.10;;;;;;;-145.01;100.00;64805.59;5079679;28;20131;-60
2023/07/03 05:06:27;;;;;;;0.10;0.10;;;;;;;-145.01;100.00;64805.59;5076888;28;20051;-60
2023/07/03 05:08:54;;;;;;;0.20;0.20;;;;;;;-145.01;100.00;64805.59;5082102;28;20348;-60
2023/07/03 05:11:22;;;;;;;0.00;0.00;;;;;;;-145.01;100.00;64805.59;5079090;28;20139;-60
2023/07/03 05:13:49;;;;;;;0.00;0.00;;;;;;;-145.01;100.00;64805.59;5084425;28;20486;-60
2023/07/03 05:16:17;;;;;;;0.20;0.20;;;;;;;-145.01;100.00;64805.59;5076870;28;20071;-60
2023/07/03 05:18:48;;;;;;;;;;;;;;;-145.01;100.00;64805.59;5080435;28;20043;-60
2023/07/03 05:21:16;;;;;;;0.05;0.05;;;;;;;-145.01;100.00;64805.59;5071777;28;19927;-59
2023/07/03 05:23:43;;;;;;;0.00;0.00;;;;;;;-145.01;100.00;64805.59;5079955;28;20048;-60
2023/07/03 05:26:11;;;;;;;0.00;0.00;;;;;;;-145.01;100.00;64805.59;5075734;28;20426;-60
2023/07/03 05:28:39;;;;;;;0.10;0.10;;;;;;;-145.01;100.00;64805.59;5078852;28;20037;-60
2023/07/03 05:31:09;;;;;;;0.08;0.08;;;;;;;-145.01;100.00;64805.59;5078174;28;20040;-59
2023/07/03 05:33:37;;;;;;;0.10;0.10;;;;;;;-145.01;100.00;64805.59;5078697;28;20060;-59
2023/07/03 05:36:07;;;;;;;0.20;0.20;;;;;;;-145.01;100.00;64805.59;5074185;28;20440;-60
2023/07/03 05:38:38;;;;;;;0.10;0.10;;;;;;;-145.01;100.00;64805.59;5079344;28;20048;-59
2023/07/03 05:41:06;;;;;;;0.10;0.10;;;;;;;-145.01;100.00;64805.59;5084161;28;20051;-59
2023/07/03 05:43:34;;;;;;;0.00;0.00;;;;;;;-145.01;100.00;64805.59;5069252;28;20113;-60
2023/07/03 05:46:04;;;;;;;0.00;0.00;;;;;;;-145.01;100.00;64805.59;5079813;28;20470;-59
2023/07/03 05:48:32;;;;;;;0.10;0.10;;;;;;;-145.01;100.00;64805.59;5075299;28;20044;-59
2023/07/03 05:51:02;;;;;;;0.00;0.00;;;;;;;-145.01;100.00;64805.59;5069085;28;20129;-59
2023/07/03 05:53:31;;;;;;;0.10;0.10;;;;;;;-145.01;100.00;64805.59;5080095;28;20051;-59
2023/07/03 05:55:59;;;;;;;0.00;0.00;;;;;;;-145.01;100.00;64805.59;5066060;28;20036;-59
2023/07/03 05:58:27;;;;;;;0.10;0.10;;;;;;;-145.01;100.00;64805.59;5074468;28;20127;-59
2023/07/03 06:00:55;;;;;;;0.00;0.00;;;;;;;-145.01;100.00;64805.59;5082334;28;20036;-59
2023/07/03 06:03:24;;;;;;;0.10;0.10;;;;;;;-145.01;100.00;64805.59;5074780;28;20101;-59
2023/07/03 06:05:52;;;;;;;0.05;0.05;;;;;;;-145.01;100.00;64805.59;5079095;28;20455;-60
2023/07/03 06:08:19;;;;;;;0.10;0.10;;;;;;;-145.01;100.00;64805.59;5069744;28;20061;-59
2023/07/03 06:10:48;;;;;;;0.00;0.00;;;;;;;-145.01;100.00;64805.59;5079105;28;20516;-59
2023/07/03 06:13:16;;;;;;;0.10;0.10;;;;;;;-145.01;100.00;64805.59;5076247;28;20125;-60
2023/07/03 06:15:48;;;;;;;0.10;0.10;;;;;;;-145.01;100.00;64805.59;5075141;28;20404;-59
2023/07/03 06:18:18;;;;;;;0.08;0.08;;;;;;;-145.01;100.00;64805.59;5080747;28;20102;-60
2023/07/03 06:20:45;;;;;;;;;;;;;;;-145.01;100.00;64805.59;5074941;28;20443;-59
2023/07/03 06:23:13;;;;;;;0.10;0.10;;;;;;;-145.01;100.00;64805.59;5076197;28;19939;-59
2023/07/03 06:25:40;;;;;;;0.10;0.10;;;;;;;-145.01;100.00;64805.59;5074238;28;20100;-59
2023/07/03 06:28:11;;;;;;;0.10;0.10;;;;;;;-145.01;100.00;64805.59;5077729;28;20140;-59
2023/07/03 06:30:38;;;;;;;0.10;0.10;;;;;;;-145.01;100.00;64805.59;5075892;28;20045;-59
2023/07/03 06:33:06;;;;;;;0.00;0.00;;;;;;;-145.01;100.00;64805.59;5075387;28;20093;-59
2023/07/03 06:35:33;;;;;;;0.10;0.10;;;;;;;-145.01;100.00;64805.59;5076655;28;20082;-59
2023/07/03 06:38:03;;;;;;;0.10;0.10;;;;;;;-145.01;100.00;64805.59;5082731;28;20048;-60
2023/07/03 06:40:35;;;;;;;0.10;0.10;;;;;;;-145.01;100.00;64805.59;5078836;28;20042;-59
2023/07/03 06:43:03;;;;;;;0.10;0.10;;;;;;;-145.01;100.00;64805.59;5070174;28;20040;-59
2023/07/03 06:45:32;;;;;;;0.10;0.10;;;;;;;-145.01;100.00;64805.59;5074767;28;20082;-59
2023/07/03 06:48:00;;;;;;;0.10;0.10;;;;;;;-145.01;100.00;64805.59;5073150;28;20048;-59
2023/07/03 06:50:29;;;;;;;0.10;0.10;;;;;;;-145.01;100.00;64805.59;5073639;28;20162;-59
2023/07/03 06:52:57;;;;;;;0.00;0.00;;;;;;;-145.01;100.00;64805.59;5076389;28;20037;-59
2023/07/03 06:55:27;;;;;;;0.10;0.10;;;;;;;-145.01;100.00;64805.59;5076407;28;20075;-59
2023/07/03 06:57:55;;;;;;;0.10;0.10;;;;;;;-145.01;100.00;64805.59;5057642;28;20051;-59
2023/07/03 07:00:22;;;;;;;0.17;0.17;;;;;;;-145.01;100.00;64805.59;5083174;28;20044;-59
2023/07/03 07:02:52;;;;;;;0.10;0.10;;;;;;;-145.01;100.00;64805.59;5076289;28;20389;-59
2023/07/03 07:05:24;;;;;;;0.10;0.10;;;;;;;-145.01;100.00;64805.59;5072704;28;20044;-59
2023/07/03 07:07:52;;;;;;;0.00;0.00;;;;;;;-145.01;100.00;64805.59;5080001;28;20058;-59
2023/07/03 07:10:24;;;;;;;0.00;0.00;;;;;;;-145.01;100.00;64805.59;5076925;28;20054;-59
2023/07/03 07:12:51;;;;;;;0.00;0.00;;;;;;;-145.01;100.00;64805.59;5078460;28;20093;-59
2023/07/03 07:15:19;;;;;;;0.00;0.00;;;;;;;-145.01;100.00;64805.59;5081413;28;20052;-59
2023/07/03 07:17:46;;;;;;;0.00;0.00;;;;;;;-145.01;100.00;64805.59;5075964;28;20048;-59
2023/07/03 07:20:16;;;;;;;0.00;0.00;;;;;;;-145.01;100.00;64805.59;5078718;28;20040;-59
2023/07/03 07:22:44;;;;;;;0.03;0.03;;;;;;;-145.01;100.00;64805.59;5077387;28;20044;-59
2023/07/03 07:25:11;;;;;;;0.10;0.10;;;;;;;-145.01;100.00;64805.59;5080351;28;20040;-59
2023/07/03 07:27:39;;;;;;;0.00;0.00;;;;;;;-145.01;100.00;64805.59;5076614;28;20094;-59
2023/07/03 07:30:07;;;;;;;0.00;0.00;;;;;;;-145.01;100.00;64805.59;5080369;28;20061;-59
2023/07/03 07:32:36;;;;;;;0.00;0.00;;;;;;;-145.01;100.00;64805.59;5083509;28;20043;-59
2023/07/03 07:35:04;;;;;;;0.00;0.00;;;;;;;-145.01;100.00;64805.59;5083147;28;20044;-60
2023/07/03 07:37:33;;;;;;;0.10;0.10;;;;;;;-145.01;100.00;64805.59;5074448;28;20152;-60
2023/07/03 07:40:00;;;;;;;0.00;0.00;;;;;;;-145.01;100.00;64805.59;5072342;28;20060;-60
2023/07/03 07:42:29;;;;;;;0.00;0.00;;;;;;;-145.01;100.00;64805.59;5067902;28;20680;-60
2023/07/03 07:44:56;;;;;;;0.00;0.00;;;;;;;-145.01;100.00;64805.59;5068733;28;20151;-61
2023/07/03 07:47:24;;;;;;;0.00;0.00;;;;;;;-145.01;100.00;64805.59;5073685;28;20095;-60
2023/07/03 07:49:51;;;;;;;0.00;0.00;;;;;;;-145.01;100.00;64805.59;5076349;28;20512;-60
2023/07/03 07:52:19;;;;;;;0.10;0.10;;;;;;;-145.01;100.00;64805.59;5078687;28;20044;-58
2023/07/03 07:54:48;;;;;;;0.00;0.00;;;;;;;-145.01;100.00;64805.59;5075090;28;20111;-58
2023/07/03 07:57:16;;;;;;;0.00;0.00;;;;;;;-145.01;100.00;64805.59;5072606;28;20041;-58
2023/07/03 07:59:44;;;;;;;0.00;0.00;;;;;;;-145.01;100.00;64805.59;5081518;28;20036;-58
2023/07/03 08:02:11;;;;;;;0.00;0.00;;;;;;;-145.01;100.00;64805.59;5075440;28;20162;-58
2023/07/03 08:04:39;;;;;;;0.00;0.00;;;;;;;-145.01;100.00;64805.59;5080897;28;20940;-60
2023/07/03 08:07:06;;;;;;;0.00;0.00;;;;;;;-145.01;100.00;64805.59;5073075;28;20051;-60
2023/07/03 08:09:34;;;;;;;0.00;0.00;;;;;;;-145.01;100.00;64805.59;5074827;28;20525;-59
2023/07/03 08:12:04;;;;;;;0.00;0.00;;;;;;;-145.01;100.00;64805.59;5076432;28;20414;-59
2023/07/03 08:14:34;;;;;;;0.10;0.10;;;;;;;-145.01;100.00;64805.59;5077363;28;20052;-60
2023/07/03 08:17:02;;;;;;;0.03;0.03;;;;;;;-145.01;100.00;64805.59;5072648;28;20084;-60
2023/07/03 08:19:31;;;;;;;0.22;0.22;;;;;;;-145.01;100.00;64805.59;5076383;28;20040;-58
2023/07/03 08:21:59;;;;;;;0.00;0.00;;;;;;;-145.01;100.00;64805.59;5077286;28;20039;-58
2023/07/03 08:24:27;;;;;;;0.00;0.00;;;;;;;-145.01;100.00;64805.59;5074634;28;20395;-60
2023/07/03 08:26:54;;;;;;;0.10;0.10;;;;;;;-145.01;100.00;64805.59;5083367;28;20131;-59
2023/07/03 08:29:23;;;;;;;0.00;0.00;;;;;;;-145.01;100.00;64805.59;5075050;28;20517;-59
2023/07/03 08:31:51;;;;;;;0.00;0.00;;;;;;;-145.01;100.00;64805.59;5075574;28;20041;-58
2023/07/03 08:34:18;;;;;;;0.00;0.00;;;;;;;-145.01;100.00;64805.59;5082910;28;20277;-58
2023/07/03 08:36:46;;;;;;;0.00;0.00;;;;;;;-145.01;100.00;64805.59;5086021;28;20595;-59
2023/07/03 08:39:13;;;;;;;0.00;0.00;;;;;;;-145.01;100.00;64805.59;5077416;28;20036;-58
2023/07/03 08:41:43;;;;;;;0.00;0.00;;;;;;;-145.01;100.00;64805.59;5077845;28;20387;-58
2023/07/03 08:44:13;;;;;;;0.10;0.00;;;;;;;-145.01;100.00;64805.59;5075933;28;20214;-59
2023/07/03 08:46:42;;;;;;;0.00;0.00;;;;;;;-145.01;100.00;64805.59;5082246;28;20105;-59
2023/07/03 08:49:09;;;;;;;0.00;0.00;;;;;;;-145.01;100.00;64805.59;5074539;28;20048;-59
2023/07/03 08:51:37;;;;;;;0.00;0.00;;;;;;;-145.01;100.00;64805.59;5073455;28;20052;-59
2023/07/03 08:54:07;;;;;;;0.00;0.00;;;;;;;-145.01;100.00;64805.59;5081196;28;20405;-59
2023/07/03 08:56:35;;;;;;;0.00;0.00;;;;;;;-145.01;100.00;64805.59;5080276;28;20143;-59
2023/07/03 08:59:06;;;;;;;0.00;0.00;;;;;;;-145.01;100.00;64805.59;5081482;28;20075;-59
2023/07/03 09:01:36;;;;;;;0.00;0.00;;;;;;;-145.01;100.00;64805.59;5082876;28;20047;-59
2023/07/03 09:04:13;;;;;;;0.00;0.00;;;;;;;-145.01;100.00;64805.59;5081513;28;20506;-61
2023/07/03 09:06:47;;;;;;;0.03;0.00;;;;;;;-145.01;100.00;64805.59;5077424;28;20047;-60
2023/07/03 09:09:19;;;;;;;0.22;0.10;;;;;;;-145.01;100.00;64805.59;5079312;28;20044;-60
2023/07/03 09:11:49;;;;;;;0.00;0.00;;;;;;;-145.01;100.00;64805.59;5079342;28;20056;-60
2023/07/03 09:14:21;;;;;;;0.00;0.00;;;;;;;-145.01;100.00;64805.59;5078513;28;20044;-61
2023/07/03 09:16:48;;;;;;;0.00;0.00;;;;;;;-145.01;100.00;64805.59;5075183;28;20036;-60
2023/07/03 09:19:20;;;;;;;0.00;0.00;;;;;;;-145.01;100.00;64805.59;5076868;28;20135;-61
2023/07/03 09:21:48;;;;;;;0.00;0.00;;;;;;;-145.01;100.00;64805.59;5079350;28;20047;-61
2023/07/03 09:24:19;;;;;;;0.00;0.00;;;;;;;-145.01;100.00;64805.59;5072644;28;20044;-60
2023/07/03 09:26:49;;;;;;;0.00;0.00;;;;;;;-145.01;100.00;64805.59;5071254;28;20102;-60
2023/07/03 09:29:17;;;;;;;0.00;0.00;;;;;;;-145.01;100.00;64805.59;5080367;28;20052;-60
2023/07/03 09:31:44;;;;;;;0.00;0.00;;;;;;;-145.01;100.00;64805.59;5076988;28;20130;-60
2023/07/03 09:34:12;;;;;;;0.00;0.00;;;;;;;-145.01;100.00;64805.59;5078925;28;20040;-58
2023/07/03 09:36:43;;;;;;;0.00;0.00;;;;;;;-145.01;100.00;64805.59;5079729;28;20094;-58
2023/07/03 09:39:12;;;;;;;0.00;0.00;;;;;;;-145.01;100.00;64805.59;5083151;28;20051;-59
2023/07/03 09:41:39;;;;;;;0.00;0.00;;;;;;;-145.01;100.00;64805.59;5082180;28;20040;-58
2023/07/03 09:44:08;;;;;;;0.00;0.00;;;;;;;-145.01;100.00;64805.59;5080310;28;20058;-59
2023/07/03 09:46:36;;;;;;;0.00;0.00;;;;;;;-145.01;100.00;64805.59;5074020;28;20230;-59
2023/07/03 09:49:09;;;;;;;0.00;0.00;;;;;;;-145.01;100.00;64805.59;5082030;28;20040;-59
2023/07/03 09:51:37;;;;;;;0.00;0.00;;;;;;;-145.01;100.00;64805.59;5075632;28;20047;-59
2023/07/03 09:54:08;;;;;;;0.00;0.00;;;;;;;-145.01;100.00;64805.59;5075456;28;20038;-59
2023/07/03 09:56:37;;;;;;;0.00;0.00;;;;;;;-145.01;100.00;64805.59;5080152;28;20068;-58
2023/07/03 09:59:06;;;;;;;0.00;0.00;;;;;;;-145.01;100.00;64805.59;5081282;28;20056;-59
2023/07/03 10:01:34;;;;;;;0.00;0.00;;;;;;;-145.01;100.00;64805.59;5074270;28;20568;-60
2023/07/03 10:04:03;;;;;;;0.00;0.00;;;;;;;-145.01;100.00;64805.59;5074630;28;20040;-60
2023/07/03 10:06:30;;;;;;;0.00;0.00;;;;;;;-145.01;100.00;64805.59;5075095;28;20040;-60
2023/07/03 10:09:00;;;;;;;0.00;0.00;;;;;;;-145.01;100.00;64805.59;5078238;28;20059;-60
2023/07/03 10:11:33;;;;;;;0.00;0.00;;;;;;;-145.01;100.00;64805.59;5069484;28;20113;-59
2023/07/03 10:14:00;;;;;;;0.00;0.00;;;;;;;-145.01;100.00;64805.59;5074819;28;20100;-60
2023/07/03 10:16:28;;;;;;;0.00;0.00;;;;;;;-145.01;100.00;64805.59;5079383;28;20424;-59
2023/07/03 10:18:55;;;;;;;0.00;0.00;;;;;;;-145.01;100.00;64805.59;5074445;28;20052;-59
2023/07/03 10:21:23;;;;;;;0.20;0.08;;;;;;;-145.01;100.00;64805.59;5075541;28;20071;-59
2023/07/03 10:23:50;;;;;;;0.00;0.00;;;;;;;-145.01;100.00;64805.59;5080151;28;20510;-60
2023/07/03 10:26:20;;;;;;;0.00;0.00;;;;;;;-145.01;100.00;64805.59;5074524;28;20518;-59
2023/07/03 10:28:50;;;;;;;;;;;;;;;-145.01;100.00;64805.59;5073348;28;20506;-58
2023/07/03 10:31:22;;;;;;;0.00;0.00;;;;;;;-145.01;100.00;64805.59;5077147;28;20278;-60
2023/07/03 10:33:50;;;;;;;0.00;0.00;;;;;;;-145.01;100.00;64805.59;5069819;28;20044;-59
2023/07/03 10:36:20;;;;;;;0.00;0.00;;;;;;;-145.01;100.00;64805.59;5075033;28;20495;-60
2023/07/03 10:38:52;;;;;;;0.00;0.00;;;;;;;-145.01;100.00;64805.59;5071387;28;20127;-60
2023/07/03 10:41:21;;;;;;;0.00;0.00;;;;;;;-145.01;100.00;64805.59;5077211;28;20036;-60
2023/07/03 10:43:51;;;;;;;0.00;0.00;;;;;;;-145.01;100.00;64805.59;5068456;28;20040;-60
2023/07/03 10:46:22;;;;;;;0.00;0.00;;;;;;;-145.01;100.00;64805.59;5074218;28;20375;-60
2023/07/03 10:48:50;;;;;;;0.00;0.00;;;;;;;-145.01;100.00;64805.59;5071860;28;20044;-59
2023/07/03 10:51:19;;;;;;;0.00;0.00;;;;;;;-145.01;100.00;64805.59;5078002;28;20559;-60
2023/07/03 10:53:48;;;;;;;0.00;0.00;;;;;;;-145.01;100.00;64805.59;5075341;28;20094;-59
2023/07/03 10:56:21;;;;;;;0.00;0.00;;;;;;;-145.01;100.00;64805.59;5075115;28;20044;-60
2023/07/03 10:58:54;;;;;;;0.00;0.00;;;;;;;-145.01;100.00;64805.59;5077895;28;20122;-59
2023/07/03 11:01:24;;;;;;;0.00;0.00;;;;;;;-145.01;100.00;64805.59;5078028;28;20059;-60
2023/07/03 11:03:55;;;;;;;0.00;0.00;;;;;;;-145.01;100.00;64805.59;5078970;28;20064;-59
2023/07/03 11:06:29;;;;;;;0.00;0.00;;;;;;;-145.01;100.00;64805.59;5075248;28;20521;-59
2023/07/03 11:08:58;;;;;;;0.00;0.00;;;;;;;-145.01;100.00;64805.59;5076457;28;20135;-59
2023/07/03 11:11:31;;;;;;;0.00;0.00;;;;;;;-145.01;100.00;64805.59;5076731;28;20041;-59
2023/07/03 11:14:03;;;;;;;0.00;0.00;;;;;;;-145.01;100.00;64805.59;5073779;28;20051;-59
2023/07/03 11:16:33;;;;;;;0.00;0.00;;;;;;;-145.01;100.00;64805.59;5079322;28;20063;-58
2023/07/03 11:19:09;;;;;;;0.00;0.00;;;;;;;-145.01;100.00;64805.59;5074814;28;20102;-60